Etusivu
METAR-TAF:

METAR-TAF

Lentoasemat :

Lake County Airport

Lakeview, Oregon, Yhdysvallat

Leveyspiiri: 42-10N, Pituuspiiri: 120-24W, korkeus merenpinnasta: 1441 m

Tämänhetkinen sää

Tämä raportti tehtiin 26 minuuttia sitten, kello 04.53 UTC
Tuuli 8 kn pohjoisen/luoteesta
Lämpötila 8°C
Kosteus 53%
Ilmanpaine 1025 hPa
Näkyvyys: 16.1 km
selkeää

METAR: KLKV 300453Z AUTO 33008KT 10SM CLR 08/M01 A3027 RMK AO2 SLP230 T00831011 $

Aika: 22:19 (05:19 UTC)


TAF: puuttuu

Säähavainnot ja -ennusteet yli 4000 lentoasemalta (METAR- ja TAF-raportit).

Käytössä olevat sääasemat on merkitty karttaan keltaisilla ja punaisilla pisteillä.

Aseta hiiri pisteen päälle nähdäksesi sääaseman nimen.

Klikkaa sitten nähdäksesi säähavainnot ja -ennusteet.

Kartan vaihtaminen: klikkaa mustalla rastilla varustettuja vihreitä pisteitä, niin voit zoomata sisään; viivalla varustettua vihreää pistettä, niin voit zoomata ulos tai vihreitä nuolia, niin pääset viereisille kartoille.


METAR-TAF: